Time;durP1;ratioP1;P1;durP2;ratioP2;P2;SDS_P1;SDS_P2;PMS_P1;PMS_P2;Temp;Humidity;BMP_temperature;BMP_pressure;BME280_temperature;BME280_humidity;BME280_pressure;Samples;Min_cycle;Max_cycle;Signal;HPM_P1;HPM_P2
2022/05/06 00:00:50;;;;;;;13.00;11.90;;;;;;;20.76;41.87;95645.31;6198944;28;103807;-54
2022/05/06 00:03:52;;;;;;;11.87;10.93;;;;;;;20.77;41.58;95648.78;6204499;28;103906;-55
2022/05/06 00:06:55;;;;;;;13.03;12.03;;;;;;;20.73;41.64;95639.78;6204429;28;103758;-55
2022/05/06 00:09:57;;;;;;;11.53;10.63;;;;;;;20.73;41.58;95640.56;6175375;28;104708;-55
2022/05/06 00:13:00;;;;;;;12.33;11.23;;;;;;;20.75;41.34;95646.41;6201436;28;103669;-55
2022/05/06 00:16:03;;;;;;;9.53;8.83;;;;;;;20.69;41.20;95650.19;6207429;28;105001;-55
2022/05/06 00:19:05;;;;;;;8.23;7.63;;;;;;;20.59;41.70;95648.41;6206955;28;105032;-56
2022/05/06 00:22:08;;;;;;;8.70;8.00;;;;;;;20.56;41.46;95653.50;6195201;28;104904;-54
2022/05/06 00:25:10;;;;;;;8.10;7.40;;;;;;;20.55;41.17;95652.72;6201782;28;103889;-54
2022/05/06 00:28:12;;;;;;;7.77;7.17;;;;;;;20.54;41.48;95653.00;6204187;28;103666;-55
2022/05/06 00:31:14;;;;;;;7.30;6.80;;;;;;;20.51;41.24;95651.69;6201433;28;103646;-55
2022/05/06 00:34:16;;;;;;;7.53;6.83;;;;;;;20.49;41.28;95658.34;6186881;28;104670;-54
2022/05/06 00:37:18;;;;;;;6.37;5.87;;;;;;;20.51;41.31;95662.34;6201915;28;103807;-55
2022/05/06 00:40:19;;;;;;;6.10;5.60;;;;;;;20.43;41.48;95659.47;6200924;28;103908;-55
2022/05/06 00:43:22;;;;;;;6.33;5.83;;;;;;;20.46;41.42;95656.25;6190692;28;104243;-57
2022/05/06 00:46:25;;;;;;;6.03;5.53;;;;;;;20.41;41.45;95654.44;6203020;28;103661;-55
2022/05/06 00:49:26;;;;;;;5.70;5.30;;;;;;;20.41;41.27;95656.31;6204137;28;104602;-55
2022/05/06 00:52:29;;;;;;;6.00;5.60;;;;;;;20.40;41.28;95655.50;6201698;28;103855;-55
2022/05/06 00:55:33;;;;;;;5.60;5.00;;;;;;;20.42;41.39;95655.22;6197453;28;104744;-54
2022/05/06 00:58:34;;;;;;;5.33;5.03;;;;;;;20.36;40.94;95667.00;6196874;28;103710;-55
2022/05/06 01:01:36;;;;;;;5.53;5.13;;;;;;;20.33;41.25;95657.69;6201338;28;104853;-55
2022/05/06 01:04:38;;;;;;;6.03;5.53;;;;;;;20.28;41.24;95658.53;6195837;28;104746;-55
2022/05/06 01:07:43;;;;;;;4.97;4.67;;;;;;;20.27;41.14;95651.63;6195457;27;103683;-55
2022/05/06 01:10:45;;;;;;;5.57;4.93;;;;;;;20.30;41.29;95656.38;6196780;28;103746;-55
2022/05/06 01:13:47;;;;;;;5.70;5.20;;;;;;;20.31;41.35;95662.50;6193343;28;103736;-54
2022/05/06 01:16:49;;;;;;;5.70;5.30;;;;;;;20.35;41.16;95657.44;6199662;28;104218;-54
2022/05/06 01:19:51;;;;;;;5.10;4.80;;;;;;;20.28;41.24;95661.19;6200434;28;103041;-55
2022/05/06 01:23:00;;;;;;;5.20;4.80;;;;;;;20.35;41.04;95671.50;6193285;28;104862;-55
2022/05/06 01:26:02;;;;;;;5.50;5.07;;;;;;;20.34;41.04;95666.47;6205726;28;103485;-55
2022/05/06 01:29:04;;;;;;;5.20;4.80;;;;;;;20.28;41.23;95660.41;6194167;28;104960;-55
2022/05/06 01:32:07;;;;;;;5.50;5.10;;;;;;;20.31;40.98;95663.28;6203295;28;104875;-54
2022/05/06 01:35:11;;;;;;;6.47;5.97;;;;;;;20.21;41.14;95655.38;6206739;28;104737;-54
2022/05/06 01:38:24;;;;;;;5.43;4.90;;;;;;;20.27;40.97;95650.84;6205696;28;104610;-55
2022/05/06 01:41:28;;;;;;;5.90;5.30;;;;;;;20.29;40.95;95648.69;6187000;28;104397;-54
2022/05/06 01:44:34;;;;;;;4.70;4.40;;;;;;;20.23;41.00;95650.56;6200128;28;104936;-54
2022/05/06 01:47:38;;;;;;;4.93;4.60;;;;;;;20.19;41.30;95660.19;6200939;28;104852;-54
2022/05/06 01:50:41;;;;;;;5.60;5.20;;;;;;;20.18;41.20;95653.28;6199917;28;103895;-54
2022/05/06 01:53:43;;;;;;;4.77;4.43;;;;;;;20.21;41.11;95654.59;6185574;28;103675;-54
2022/05/06 01:56:46;;;;;;;5.73;5.33;;;;;;;20.09;41.25;95648.81;6206103;28;105089;-56
2022/05/06 01:59:48;;;;;;;5.90;5.50;;;;;;;20.14;41.11;95652.22;6203029;28;104946;-57
2022/05/06 02:02:50;;;;;;;5.43;5.03;;;;;;;20.16;41.24;95649.28;6183969;28;105354;-57
2022/05/06 02:05:52;;;;;;;5.33;4.87;;;;;;;20.21;40.90;95655.38;6195873;28;104791;-54
2022/05/06 02:08:53;;;;;;;4.90;4.60;;;;;;;20.34;40.91;95658.50;6203493;28;103838;-57
2022/05/06 02:11:55;;;;;;;5.20;4.70;;;;;;;20.42;40.96;95657.88;6204185;28;103121;-56
2022/05/06 02:14:57;;;;;;;4.83;4.33;;;;;;;20.45;41.16;95657.31;6185292;28;105028;-57
2022/05/06 02:17:58;;;;;;;5.63;4.80;;;;;;;20.47;40.82;95663.94;6200772;28;104204;-56
2022/05/06 02:21:01;;;;;;;4.50;4.20;;;;;;;20.50;40.66;95666.06;6208055;28;103759;-57
2022/05/06 02:24:03;;;;;;;7.37;4.20;;;;;;;20.51;40.62;95657.03;6200615;28;104730;-56
2022/05/06 02:27:05;;;;;;;4.30;3.90;;;;;;;20.52;40.87;95658.59;6197811;28;104849;-57
2022/05/06 02:33:28;;;;;;;4.80;4.33;;;;;;;20.53;41.04;95651.41;6204683;28;104515;-57
2022/05/06 02:36:30;;;;;;;4.90;4.60;;;;;;;20.54;41.13;95650.34;6200598;28;104645;-53
2022/05/06 02:39:32;;;;;;;5.17;4.77;;;;;;;20.55;41.18;95654.59;6202807;28;104945;-56
2022/05/06 02:42:33;;;;;;;4.13;3.93;;;;;;;20.55;41.02;95662.56;6205739;28;104954;-54
2022/05/06 02:45:35;;;;;;;4.73;4.37;;;;;;;20.53;41.11;95648.75;6204629;28;104258;-56
2022/05/06 02:48:37;;;;;;;4.80;4.40;;;;;;;20.53;41.02;95651.41;6192111;28;105032;-57
2022/05/06 02:51:39;;;;;;;4.60;4.30;;;;;;;20.55;41.24;95660.69;6205093;28;104903;-57
2022/05/06 02:54:41;;;;;;;4.63;3.93;;;;;;;20.55;41.45;95658.03;6200277;28;103948;-56
2022/05/06 02:57:43;;;;;;;5.13;4.67;;;;;;;20.53;41.32;95651.41;6204862;28;103868;-55
2022/05/06 03:00:44;;;;;;;4.30;4.00;;;;;;;20.55;41.28;95657.25;6174734;28;104729;-57
2022/05/06 03:03:46;;;;;;;4.50;4.13;;;;;;;20.54;41.43;95660.97;6201682;28;104025;-58
2022/05/06 03:06:49;;;;;;;4.60;3.97;;;;;;;20.57;41.22;95671.03;6207378;28;104943;-56
2022/05/06 03:09:52;;;;;;;4.40;4.10;;;;;;;20.57;41.27;95665.72;6204788;28;103911;-55
2022/05/06 03:12:58;;;;;;;4.60;4.30;;;;;;;20.56;41.39;95664.16;6174303;28;104776;-57
2022/05/06 03:15:59;;;;;;;4.50;4.10;;;;;;;20.57;41.34;95671.03;6205315;28;103689;-57
2022/05/06 03:19:01;;;;;;;4.40;4.10;;;;;;;20.54;41.17;95663.63;6206647;28;103923;-57
2022/05/06 03:22:03;;;;;;;4.73;4.33;;;;;;;20.55;41.54;95667.88;6198138;27;103925;-52
2022/05/06 03:25:06;;;;;;;4.17;3.80;;;;;;;20.57;41.16;95673.72;6196684;28;106732;-57
2022/05/06 03:28:08;;;;;;;4.20;3.80;;;;;;;20.60;41.45;95675.78;6207293;28;103739;-57
2022/05/06 03:31:12;;;;;;;4.73;4.33;;;;;;;20.61;41.32;95677.38;6214368;27;104678;-55
2022/05/06 03:34:15;;;;;;;4.40;4.03;;;;;;;20.60;41.33;95681.13;6199415;28;103645;-56
2022/05/06 03:37:17;;;;;;;4.20;3.90;;;;;;;20.63;41.20;95685.88;6216464;28;103849;-58
2022/05/06 03:40:19;;;;;;;4.80;3.93;;;;;;;20.65;41.33;95691.69;6215701;28;104584;-54
2022/05/06 03:43:21;;;;;;;4.03;3.63;;;;;;;20.65;41.32;95693.56;6210624;28;104106;-56
2022/05/06 03:46:23;;;;;;;4.13;3.80;;;;;;;20.64;41.40;95692.78;6195492;28;103877;-57
2022/05/06 03:49:25;;;;;;;4.30;3.90;;;;;;;20.65;41.51;95699.69;6199070;28;103978;-57
2022/05/06 03:52:26;;;;;;;6.57;4.20;;;;;;;20.65;41.59;95693.56;6203181;28;104660;-56
2022/05/06 03:55:28;;;;;;;5.43;4.10;;;;;;;20.66;42.08;95698.59;6202644;28;104131;-57
2022/05/06 03:58:31;;;;;;;5.03;3.90;;;;;;;20.63;41.89;95699.16;6192850;27;103767;-56
2022/05/06 04:01:33;;;;;;;4.43;4.13;;;;;;;20.57;41.46;95697.63;6204971;28;104877;-57
2022/05/06 04:04:35;;;;;;;4.43;4.03;;;;;;;20.57;41.53;95697.63;6200925;28;105198;-57
2022/05/06 04:07:37;;;;;;;7.50;3.90;;;;;;;20.56;41.74;95698.72;6187047;28;103923;-57
2022/05/06 04:10:39;;;;;;;3.70;3.50;;;;;;;20.55;41.57;95697.91;6197691;28;103712;-56
2022/05/06 04:13:40;;;;;;;4.20;3.90;;;;;;;20.53;41.56;95710.69;6202187;28;104370;-54
2022/05/06 04:16:42;;;;;;;4.00;3.70;;;;;;;20.51;41.82;95712.06;6204498;28;103639;-56
2022/05/06 04:26:25;;;;;;;4.10;3.80;;;;;;;20.48;41.78;95701.94;6201169;28;103830;-58
2022/05/06 04:29:28;;;;;;;4.70;4.00;;;;;;;20.48;41.67;95709.94;6200289;28;105163;-56
2022/05/06 04:32:30;;;;;;;4.77;4.37;;;;;;;20.49;41.58;95704.34;6190903;28;103826;-54
2022/05/06 04:35:31;;;;;;;4.57;4.27;;;;;;;20.47;41.58;95706.47;6202111;28;105172;-56
2022/05/06 04:38:33;;;;;;;4.00;3.70;;;;;;;20.48;41.57;95718.69;6205210;28;103806;-57
2022/05/06 04:41:35;;;;;;;3.93;3.63;;;;;;;20.47;41.50;95718.97;6195487;28;103872;-57
2022/05/06 04:44:37;;;;;;;4.03;3.80;;;;;;;20.48;41.60;95720.56;6186206;28;103990;-56
2022/05/06 04:47:38;;;;;;;4.07;3.77;;;;;;;20.45;41.71;95705.19;6204289;28;103641;-56
2022/05/06 04:50:41;;;;;;;4.33;4.03;;;;;;;20.47;41.53;95724.28;6201675;28;103958;-57
2022/05/06 04:53:44;;;;;;;4.53;4.23;;;;;;;20.45;41.64;95721.13;6189921;28;105053;-56
2022/05/06 04:56:46;;;;;;;4.57;4.27;;;;;;;20.43;41.31;95715.28;6202454;28;104266;-57
2022/05/06 04:59:47;;;;;;;3.70;3.50;;;;;;;20.47;41.54;95725.09;6202642;28;104847;-56
2022/05/06 05:02:49;;;;;;;4.23;3.93;;;;;;;20.48;41.46;95728.53;6197290;28;103776;-57
2022/05/06 05:05:51;;;;;;;4.20;3.80;;;;;;;20.47;41.22;95726.94;6190330;28;103914;-58
2022/05/06 05:08:53;;;;;;;5.43;3.70;;;;;;;20.40;41.51;95719.31;6202889;28;103921;-58
2022/05/06 05:11:54;;;;;;;4.60;4.30;;;;;;;20.48;41.19;95736.50;6201793;28;103897;-56
2022/05/06 05:14:57;;;;;;;4.90;3.60;;;;;;;20.46;41.35;95742.13;6195685;28;104970;-54
2022/05/06 05:17:58;;;;;;;4.10;3.80;;;;;;;20.45;41.29;95734.41;6195840;28;103743;-57
2022/05/06 05:21:01;;;;;;;3.53;3.23;;;;;;;20.49;41.15;95738.09;6195328;28;104714;-54
2022/05/06 05:24:03;;;;;;;3.80;3.50;;;;;;;20.50;41.07;95737.03;6193251;28;104875;-57
2022/05/06 05:27:05;;;;;;;3.97;3.70;;;;;;;20.50;41.11;95742.34;6194807;28;103777;-57
2022/05/06 05:30:10;;;;;;;4.00;3.70;;;;;;;20.49;40.81;95736.22;6202448;28;103850;-57
2022/05/06 05:33:11;;;;;;;4.00;3.70;;;;;;;20.52;41.16;95742.88;6198436;28;103759;-56
2022/05/06 05:36:13;;;;;;;5.10;4.17;;;;;;;20.49;41.08;95738.09;6201160;28;103938;-57
2022/05/06 05:39:15;;;;;;;3.90;3.70;;;;;;;20.48;41.12;95731.19;6192863;28;103812;-57
2022/05/06 05:42:26;;;;;;;4.13;3.80;;;;;;;20.53;41.17;95739.16;6199776;28;105018;-56
2022/05/06 05:48:51;;;;;;;4.03;3.83;;;;;;;20.55;40.95;95732.47;6201081;28;103847;-53
2022/05/06 05:51:53;;;;;;;4.27;3.97;;;;;;;20.58;40.79;95736.44;6193022;28;103755;-58
2022/05/06 05:54:55;;;;;;;5.13;4.83;;;;;;;20.60;41.55;95723.66;6195862;28;104868;-62
2022/05/06 05:57:56;;;;;;;4.67;4.10;;;;;;;20.63;40.85;95733.72;6195439;28;105060;-61
2022/05/06 06:00:59;;;;;;;4.10;3.80;;;;;;;20.65;41.20;95731.59;6194319;28;103926;-58
2022/05/06 06:04:00;;;;;;;5.17;4.70;;;;;;;20.65;40.65;95723.59;6193273;28;104849;-60
2022/05/06 06:07:09;;;;;;;6.07;5.60;;;;;;;20.76;41.13;95738.41;6208864;28;104858;-61
2022/05/06 06:10:11;;;;;;;7.50;6.80;;;;;;;20.81;41.11;95737.56;6202423;28;104346;-59
2022/05/06 06:13:16;;;;;;;12.33;11.13;;;;;;;20.78;42.77;95722.16;6194395;28;103430;-61
2022/05/06 06:16:19;;;;;;;11.53;10.60;;;;;;;20.84;42.47;95734.38;6198804;28;105626;-63
2022/05/06 06:19:21;;;;;;;9.30;8.40;;;;;;;20.87;41.97;95734.59;6206099;28;103722;-61
2022/05/06 06:22:23;;;;;;;8.47;7.77;;;;;;;20.86;41.62;95733.00;6200453;28;103875;-60
2022/05/06 06:25:25;;;;;;;7.93;7.23;;;;;;;20.87;41.84;95728.47;6196492;28;103722;-61
2022/05/06 06:28:27;;;;;;;9.70;7.30;;;;;;;20.87;41.69;95723.16;6205453;28;104224;-61
2022/05/06 06:31:31;;;;;;;7.17;6.47;;;;;;;20.92;41.68;95737.19;6207461;28;104781;-61
2022/05/06 06:34:33;;;;;;;6.80;6.30;;;;;;;20.93;41.94;95730.81;6199642;28;104743;-57
2022/05/06 06:37:38;;;;;;;8.13;5.87;;;;;;;20.98;41.96;95727.28;6200240;28;104803;-59
2022/05/06 06:40:39;;;;;;;6.87;6.13;;;;;;;20.98;41.61;95719.31;6207446;28;104959;-59
2022/05/06 06:43:42;;;;;;;7.00;6.30;;;;;;;21.03;41.64;95723.81;6198919;28;104408;-57
2022/05/06 06:46:43;;;;;;;6.70;6.10;;;;;;;21.07;41.75;95727.50;6188262;28;103362;-55
2022/05/06 06:49:45;;;;;;;6.80;6.20;;;;;;;21.08;41.62;95718.47;6206155;28;105143;-57
2022/05/06 06:52:47;;;;;;;7.60;6.20;;;;;;;21.08;41.52;95723.78;6206405;28;103877;-62
2022/05/06 06:55:49;;;;;;;5.70;5.30;;;;;;;21.08;42.10;95727.22;6204964;28;103408;-63
2022/05/06 06:58:51;;;;;;;6.40;5.80;;;;;;;21.09;42.23;95731.47;6191768;28;104322;-61
2022/05/06 07:01:53;;;;;;;6.93;6.33;;;;;;;21.12;43.12;95728.25;6207312;28;104963;-62
2022/05/06 07:04:54;;;;;;;9.83;6.10;;;;;;;21.13;43.15;95718.41;6200375;28;104698;-62
2022/05/06 07:11:56;;;;;;;8.73;6.93;;;;;;;21.20;43.42;95724.97;6189281;28;104658;-62
2022/05/06 07:14:59;;;;;;;6.90;6.13;;;;;;;20.81;41.69;95716.28;6204717;28;104684;-62
2022/05/06 07:18:00;;;;;;;6.23;5.67;;;;;;;20.92;43.57;95717.78;6207260;28;103813;-62
2022/05/06 07:21:02;;;;;;;6.53;5.93;;;;;;;21.01;44.95;95721.44;6198347;28;104817;-61
2022/05/06 07:24:04;;;;;;;6.63;6.03;;;;;;;20.81;42.36;95719.75;6188323;28;104449;-62
2022/05/06 07:27:07;;;;;;;6.57;5.90;;;;;;;20.42;42.56;95721.69;6203562;28;103800;-62
2022/05/06 07:30:10;;;;;;;6.93;6.27;;;;;;;20.79;43.64;95719.22;6208503;28;103957;-63
2022/05/06 07:33:12;;;;;;;6.77;5.77;;;;;;;20.93;43.87;95709.53;6177632;28;104141;-59
2022/05/06 07:36:13;;;;;;;6.00;5.10;;;;;;;21.06;43.47;95709.97;6206461;28;103694;-59
2022/05/06 07:39:16;;;;;;;6.40;5.87;;;;;;;21.02;43.23;95703.59;6207171;28;105005;-62
2022/05/06 07:42:17;;;;;;;6.50;5.73;;;;;;;21.09;43.47;95712.84;6202226;28;103853;-63
2022/05/06 07:45:20;;;;;;;6.33;5.50;;;;;;;21.19;44.15;95711.97;6174690;28;105391;-60
2022/05/06 07:48:22;;;;;;;6.07;4.80;;;;;;;21.26;43.55;95712.41;6205029;28;105956;-62
2022/05/06 07:51:24;;;;;;;7.50;5.63;;;;;;;21.32;44.69;95721.09;6207292;28;104435;-61
2022/05/06 07:54:25;;;;;;;7.93;5.73;;;;;;;21.38;45.12;95714.66;6197190;28;103824;-63
2022/05/06 07:57:27;;;;;;;8.80;5.60;;;;;;;21.37;46.47;95699.78;6201220;28;103848;-63
2022/05/06 08:00:29;;;;;;;7.37;6.30;;;;;;;21.45;46.85;95713.25;6202226;28;104857;-63
2022/05/06 08:06:51;;;;;;;7.40;6.37;;;;;;;21.48;45.43;95711.88;6188730;28;104694;-61
2022/05/06 08:09:53;;;;;;;8.00;5.90;;;;;;;21.44;45.82;95703.66;6183344;28;103679;-61
2022/05/06 08:12:55;;;;;;;8.87;6.13;;;;;;;21.42;45.59;95708.47;6204216;28;104769;-60
2022/05/06 08:15:57;;;;;;;7.60;6.30;;;;;;;21.37;45.17;95697.13;6206815;28;104209;-61
2022/05/06 08:18:59;;;;;;;5.70;5.20;;;;;;;21.36;45.36;95698.97;6196689;28;104904;-62
2022/05/06 08:22:01;;;;;;;6.20;5.60;;;;;;;21.31;45.15;95695.56;6207515;28;104885;-62
2022/05/06 08:25:08;;;;;;;6.03;5.43;;;;;;;21.32;44.51;95703.25;6189839;28;103895;-61
2022/05/06 08:28:30;;;;;;;6.60;6.00;;;;;;;21.34;44.07;95701.13;6199837;28;103322;-57
2022/05/06 08:31:37;;;;;;;7.27;5.47;;;;;;;21.37;44.13;95700.56;6201437;28;103909;-58
2022/05/06 08:34:39;;;;;;;6.53;5.00;;;;;;;21.37;44.02;95703.22;6205967;28;103928;-58
2022/05/06 08:37:45;;;;;;;5.90;5.10;;;;;;;21.37;43.55;95689.91;6206631;28;103676;-58
2022/05/06 08:40:49;;;;;;;6.23;5.60;;;;;;;21.33;43.39;95683.56;6195275;28;103732;-57
2022/05/06 08:43:51;;;;;;;6.00;4.87;;;;;;;21.36;43.03;95688.34;6208236;28;104528;-57
2022/05/06 08:53:40;;;;;;;6.07;5.53;;;;;;;21.40;43.09;95686.69;6197262;28;103920;-57
2022/05/06 08:56:42;;;;;;;6.40;5.90;;;;;;;21.40;42.93;95681.34;6206635;28;104753;-58
2022/05/06 08:59:50;;;;;;;5.63;5.23;;;;;;;21.38;42.77;95674.72;6183587;28;103689;-59
2022/05/06 09:02:52;;;;;;;6.87;5.37;;;;;;;21.39;42.81;95678.97;6193253;28;103901;-56
2022/05/06 09:05:58;;;;;;;5.60;5.20;;;;;;;21.41;42.34;95679.47;6203357;28;103619;-58
2022/05/06 09:09:00;;;;;;;5.93;5.50;;;;;;;21.38;42.45;95685.38;6188700;28;103684;-58
2022/05/06 09:18:44;;;;;;;6.10;5.40;;;;;;;21.38;42.54;95682.72;6207553;28;105043;-58
2022/05/06 09:22:02;;;;;;;5.77;5.27;;;;;;;21.40;42.23;95684.03;6206481;28;104280;-58
2022/05/06 09:25:04;;;;;;;5.57;5.17;;;;;;;21.40;41.84;95681.34;6185055;28;103781;-59
2022/05/06 09:28:19;;;;;;;6.33;5.20;;;;;;;21.38;41.78;95672.88;6202288;28;106102;-58
2022/05/06 09:31:25;;;;;;;5.60;5.20;;;;;;;21.34;41.57;95657.72;6207411;28;103164;-58
2022/05/06 09:34:28;;;;;;;5.90;5.50;;;;;;;21.43;41.42;95667.47;6207521;28;105087;-57
2022/05/06 09:37:39;;;;;;;6.10;5.47;;;;;;;21.48;41.24;95667.38;6196246;28;104438;-56
2022/05/06 09:40:41;;;;;;;6.03;5.63;;;;;;;21.51;41.09;95652.75;6202856;28;106053;-57
2022/05/06 09:43:58;;;;;;;6.10;5.70;;;;;;;21.49;40.77;95660.97;6205668;28;105026;-57
2022/05/06 09:47:11;;;;;;;5.87;5.43;;;;;;;21.49;41.12;95660.19;6196168;28;103485;-59
2022/05/06 09:50:13;;;;;;;6.17;5.67;;;;;;;21.49;41.26;95654.88;6183961;28;103885;-59
2022/05/06 09:53:16;;;;;;;6.23;5.83;;;;;;;21.45;40.88;95643.22;6205579;28;104033;-59
2022/05/06 09:56:20;;;;;;;6.27;5.77;;;;;;;21.45;40.90;95649.34;6206332;28;105122;-56
2022/05/06 09:59:22;;;;;;;5.90;5.50;;;;;;;21.46;41.07;95655.44;6201323;28;104741;-57
2022/05/06 10:02:24;;;;;;;5.90;5.50;;;;;;;21.46;41.31;95658.13;6200498;28;104948;-57
2022/05/06 10:05:27;;;;;;;5.90;5.40;;;;;;;21.44;40.77;95647.75;6198604;28;103652;-56
2022/05/06 10:08:30;;;;;;;6.20;5.70;;;;;;;21.38;41.04;95642.78;6205160;28;103664;-58
2022/05/06 10:11:32;;;;;;;5.67;5.30;;;;;;;21.46;40.80;95650.91;6196227;28;104127;-57
2022/05/06 10:14:36;;;;;;;5.87;5.47;;;;;;;21.47;40.70;95633.84;6204491;28;103920;-57
2022/05/06 10:17:48;;;;;;;5.90;5.50;;;;;;;21.47;40.50;95647.16;6205889;28;104579;-59
2022/05/06 10:20:50;;;;;;;5.40;5.10;;;;;;;21.48;40.90;95645.31;6206443;28;103700;-59
2022/05/06 10:23:56;;;;;;;6.37;5.87;;;;;;;21.33;39.56;95642.84;6192008;28;103916;-56
2022/05/06 10:26:57;;;;;;;6.67;5.90;;;;;;;21.44;40.33;95641.63;6205169;28;104916;-58
2022/05/06 10:33:19;;;;;;;7.23;5.30;;;;;;;21.47;40.63;95652.50;6199294;28;104798;-58
2022/05/06 10:36:45;;;;;;;9.10;5.20;;;;;;;21.43;40.24;95640.84;6188925;28;103802;-57
2022/05/06 10:39:48;;;;;;;7.63;5.57;;;;;;;21.41;40.13;95645.66;6198214;28;105298;-58
2022/05/06 10:42:50;;;;;;;5.80;5.30;;;;;;;21.40;39.77;95632.63;6210675;28;103926;-58
2022/05/06 10:45:52;;;;;;;5.33;4.83;;;;;;;21.40;39.53;95627.31;6198379;28;103391;-57
2022/05/06 10:48:54;;;;;;;7.53;6.00;;;;;;;21.39;39.74;95618.53;6207127;28;104318;-58
2022/05/06 10:52:15;;;;;;;6.23;4.97;;;;;;;21.40;39.60;95617.47;6203215;28;105006;-58
2022/05/06 10:55:19;;;;;;;5.13;4.67;;;;;;;21.40;39.58;95629.97;6210133;28;103629;-58
2022/05/06 10:58:21;;;;;;;4.70;4.40;;;;;;;21.38;39.34;95624.94;6187396;28;104936;-58
2022/05/06 11:01:24;;;;;;;5.27;4.97;;;;;;;21.39;39.40;95615.88;6205944;28;104012;-58
2022/05/06 11:04:25;;;;;;;6.23;5.10;;;;;;;21.40;39.11;95620.13;6202901;28;103235;-56
2022/05/06 11:07:29;;;;;;;5.50;5.00;;;;;;;21.43;39.36;95614.22;6199744;28;104361;-57
2022/05/06 11:10:33;;;;;;;5.10;4.70;;;;;;;21.44;39.26;95613.13;6201883;28;104990;-55
2022/05/06 11:14:17;;;;;;;5.03;4.60;;;;;;;21.47;39.50;95607.22;6198276;28;103346;-56
2022/05/06 11:17:19;;;;;;;5.23;4.70;;;;;;;21.49;38.87;95607.72;6206165;28;104847;-56
2022/05/06 11:20:28;;;;;;;4.93;4.63;;;;;;;21.49;38.83;95602.41;6196518;27;103628;-56
2022/05/06 11:23:30;;;;;;;5.47;4.70;;;;;;;21.50;38.79;95598.66;6204211;28;104993;-56
2022/05/06 11:26:32;;;;;;;5.13;4.67;;;;;;;21.51;38.77;95591.50;6207151;28;103701;-56
2022/05/06 11:29:47;;;;;;;4.50;4.00;;;;;;;21.54;38.70;95598.13;6203833;28;103878;-56
2022/05/06 11:32:50;;;;;;;5.90;4.47;;;;;;;21.52;38.89;95595.75;6196110;28;103954;-56
2022/05/06 11:36:01;;;;;;;4.67;4.17;;;;;;;21.46;38.80;95584.34;6203956;28;103947;-55
2022/05/06 11:39:12;;;;;;;4.50;4.10;;;;;;;21.48;38.37;95576.06;6203101;28;104657;-57
2022/05/06 11:42:23;;;;;;;5.53;4.97;;;;;;;21.51;38.11;95584.28;6191971;28;103693;-56
2022/05/06 11:48:47;;;;;;;8.73;4.70;;;;;;;21.61;38.99;95582.56;6203442;28;104505;-57
2022/05/06 11:51:49;;;;;;;4.60;4.30;;;;;;;21.59;39.30;95574.84;6204174;28;104787;-56
2022/05/06 11:54:51;;;;;;;4.77;4.20;;;;;;;21.59;39.22;95571.41;6188131;28;103910;-56
2022/05/06 11:57:54;;;;;;;5.33;4.70;;;;;;;21.62;39.81;95573.47;6205893;28;104075;-56
2022/05/06 12:00:55;;;;;;;4.77;4.30;;;;;;;21.65;39.87;95572.91;6203667;28;104492;-59
2022/05/06 12:04:05;;;;;;;5.20;4.70;;;;;;;21.64;39.92;95565.97;6207716;28;103644;-57
2022/05/06 12:07:09;;;;;;;5.60;4.90;;;;;;;21.64;40.04;95561.44;6195312;28;104680;-58
2022/05/06 12:10:27;;;;;;;4.30;4.00;;;;;;;21.62;40.66;95557.50;6211355;28;107636;-57
2022/05/06 12:13:34;;;;;;;4.67;4.27;;;;;;;21.65;40.57;95562.25;6207987;28;104906;-57
2022/05/06 12:16:36;;;;;;;5.60;5.20;;;;;;;21.64;40.75;95558.00;6206599;28;104643;-57
2022/05/06 12:19:41;;;;;;;9.03;6.20;;;;;;;21.58;40.68;95549.31;6211323;28;103846;-54
2022/05/06 12:22:43;;;;;;;9.40;5.53;;;;;;;21.64;40.24;95547.34;6202427;28;103714;-57
2022/05/06 12:25:53;;;;;;;12.00;9.87;;;;;;;21.65;40.49;95538.28;6202872;28;103338;-60
2022/05/06 12:28:55;;;;;;;14.63;12.70;;;;;;;21.66;40.55;95537.97;6196283;28;104982;-57
2022/05/06 12:32:01;;;;;;;14.00;12.77;;;;;;;21.66;40.60;95534.53;6197583;28;104259;-57
2022/05/06 12:35:08;;;;;;;12.30;11.30;;;;;;;21.68;40.73;95532.38;6194831;28;103733;-57
2022/05/06 12:38:10;;;;;;;13.60;12.13;;;;;;;21.64;41.05;95513.50;6193781;28;103664;-54
2022/05/06 12:41:19;;;;;;;12.53;11.43;;;;;;;21.68;41.46;95517.19;6196451;28;103707;-57
2022/05/06 12:44:24;;;;;;;11.70;10.60;;;;;;;21.70;41.49;95508.91;6203453;28;103712;-58
2022/05/06 12:50:50;;;;;;;18.53;16.73;;;;;;;21.66;41.35;95502.56;6185896;28;105062;-57
2022/05/06 12:53:52;;;;;;;22.90;20.80;;;;;;;21.66;41.36;95495.34;6203578;28;103924;-59
2022/05/06 12:56:55;;;;;;;25.50;23.00;;;;;;;21.66;41.79;95489.25;6201761;28;103945;-60
2022/05/06 12:59:57;;;;;;;26.37;23.87;;;;;;;21.67;41.48;95493.50;6203588;28;105027;-60
2022/05/06 13:03:00;;;;;;;28.10;25.50;;;;;;;21.68;41.76;95487.91;6191892;28;104996;-60
2022/05/06 13:06:02;;;;;;;31.27;28.47;;;;;;;21.68;41.78;95489.78;6205467;28;105222;-60
2022/05/06 13:09:04;;;;;;;35.17;31.87;;;;;;;21.71;41.82;95481.19;6205511;28;104958;-60
2022/05/06 13:12:08;;;;;;;36.87;33.17;;;;;;;21.73;41.85;95484.34;6199571;28;104748;-61
2022/05/06 13:15:10;;;;;;;43.90;39.50;;;;;;;21.73;42.33;95474.47;6196727;28;103874;-58
2022/05/06 13:18:12;;;;;;;44.67;40.37;;;;;;;21.73;42.03;95481.69;6203356;28;104877;-59
2022/05/06 13:21:14;;;;;;;46.67;42.00;;;;;;;21.71;42.29;95473.19;6185118;28;104663;-59
2022/05/06 13:24:16;;;;;;;33.23;29.97;;;;;;;21.64;38.34;95475.44;6182838;28;103898;-58
2022/05/06 13:27:17;;;;;;;9.20;8.43;;;;;;;21.43;32.28;95473.09;6189293;28;104606;-59
2022/05/06 13:30:19;;;;;;;8.00;7.30;;;;;;;21.34;32.07;95466.88;6185858;28;106027;-59
2022/05/06 13:33:21;;;;;;;9.90;8.90;;;;;;;21.37;32.38;95468.94;6168722;28;104278;-60
2022/05/06 13:36:22;;;;;;;9.63;8.47;;;;;;;21.44;32.96;95452.59;6191805;28;103752;-59
2022/05/06 13:39:24;;;;;;;11.17;10.20;;;;;;;21.51;32.96;95459.16;6204519;28;103488;-58
2022/05/06 13:42:26;;;;;;;12.17;10.83;;;;;;;21.55;34.25;95450.56;6199791;28;104702;-59
2022/05/06 13:45:29;;;;;;;11.60;10.67;;;;;;;21.53;34.76;95450.88;6200088;28;104006;-58
2022/05/06 13:48:31;;;;;;;13.73;12.40;;;;;;;21.58;34.93;95449.97;6192942;28;103358;-59
2022/05/06 13:51:32;;;;;;;13.93;12.63;;;;;;;21.58;35.57;95444.66;6203809;28;104470;-59
2022/05/06 13:54:35;;;;;;;15.93;14.53;;;;;;;21.61;35.87;95452.06;6199506;28;104777;-58
2022/05/06 14:00:57;;;;;;;10.60;8.90;;;;;;;21.46;33.85;95440.56;6179780;28;104300;-60
2022/05/06 14:03:59;;;;;;;10.17;9.27;;;;;;;21.46;34.21;95427.25;6199178;28;103740;-59
2022/05/06 14:07:02;;;;;;;10.50;9.60;;;;;;;21.49;34.44;95433.88;6203295;28;104761;-60
2022/05/06 14:10:05;;;;;;;11.10;10.10;;;;;;;21.51;35.14;95431.72;6190706;28;104048;-60
2022/05/06 14:13:08;;;;;;;12.40;11.30;;;;;;;21.41;35.37;95403.38;6198427;28;104690;-58
2022/05/06 14:16:09;;;;;;;15.27;13.97;;;;;;;21.60;36.41;95419.31;6206950;28;104099;-59
2022/05/06 14:19:11;;;;;;;19.13;17.43;;;;;;;21.65;36.78;95427.19;6208813;28;103724;-59
2022/05/06 14:22:13;;;;;;;19.73;17.93;;;;;;;21.67;36.94;95421.56;6196809;28;103961;-60
2022/05/06 14:25:16;;;;;;;19.83;17.70;;;;;;;21.70;37.06;95423.69;6204807;28;103915;-62
2022/05/06 14:28:20;;;;;;;20.27;18.40;;;;;;;21.72;37.63;95421.50;6207038;28;103749;-60
2022/05/06 14:31:22;;;;;;;14.70;13.40;;;;;;;21.61;37.10;95428.88;6199058;28;104950;-59
2022/05/06 14:34:28;;;;;;;13.80;12.60;;;;;;;21.54;37.02;95414.38;6185491;28;104776;-60
2022/05/06 14:37:30;;;;;;;14.13;12.73;;;;;;;21.54;37.04;95417.03;6208287;28;103900;-60
2022/05/06 14:40:32;;;;;;;12.80;11.70;;;;;;;21.55;36.57;95418.63;6206858;28;104052;-60
2022/05/06 14:43:33;;;;;;;13.37;12.10;;;;;;;21.51;36.94;95403.22;6196209;28;104872;-58
2022/05/06 14:46:35;;;;;;;18.10;14.47;;;;;;;21.54;37.09;95417.81;6202031;28;103731;-59
2022/05/06 14:49:37;;;;;;;14.57;13.37;;;;;;;21.55;37.51;95413.28;6207846;28;104727;-59
2022/05/06 14:52:39;;;;;;;15.63;14.10;;;;;;;21.55;37.76;95413.28;6204807;28;104832;-57
2022/05/06 14:55:40;;;;;;;16.30;14.90;;;;;;;21.59;38.45;95400.97;6193728;28;104563;-59